Terminal Aerodrome Forecast
Issued by NWS

Home | Current Version | Previous Version | Text Only | Print | Product List | Glossary On
Versions: 1 2 3 4 5 6 7 8 9 10 11 12
000
FTUS45 KVEF 171100
TAFVGT
TAF
KVGT 171120Z 1712/1812 VRB05KT P6SM SKC
     FM171700 12006KT P6SM FEW250
     FM172200 19012G20KT P6SM BKN250
     FM180300 19010KT P6SM BKN250=

USA.gov is the U.S. government's official web portal to all federal, state and local government web resources and services.